sensor_id;sensor_type;location;lat;lon;timestamp;P1;durP1;ratioP1;P2;durP2;ratioP2
69795;SDS011;57073;45.650;9.612;2023-05-18T00:04:13;11.52;;;7.43;;
69795;SDS011;57073;45.650;9.612;2023-05-18T00:09:16;8.30;;;5.10;;
69795;SDS011;57073;45.650;9.612;2023-05-18T00:14:16;9.95;;;5.55;;
69795;SDS011;57073;45.650;9.612;2023-05-18T00:19:16;10.93;;;6.50;;
69795;SDS011;57073;45.650;9.612;2023-05-18T00:24:17;11.03;;;6.57;;
69795;SDS011;57073;45.650;9.612;2023-05-18T00:29:18;7.27;;;5.00;;
69795;SDS011;57073;45.650;9.612;2023-05-18T00:34:18;7.47;;;3.87;;
69795;SDS011;57073;45.650;9.612;2023-05-18T00:39:18;7.07;;;3.53;;
69795;SDS011;57073;45.650;9.612;2023-05-18T00:44:19;7.00;;;4.03;;
69795;SDS011;57073;45.650;9.612;2023-05-18T00:49:20;5.87;;;4.10;;
69795;SDS011;57073;45.650;9.612;2023-05-18T00:54:20;5.53;;;3.70;;
69795;SDS011;57073;45.650;9.612;2023-05-18T00:59:20;6.27;;;3.40;;
69795;SDS011;57073;45.650;9.612;2023-05-18T01:04:21;6.07;;;3.80;;
69795;SDS011;57073;45.650;9.612;2023-05-18T01:09:23;6.90;;;4.07;;
69795;SDS011;57073;45.650;9.612;2023-05-18T01:14:26;9.23;;;4.67;;
69795;SDS011;57073;45.650;9.612;2023-05-18T01:24:51;11.57;;;7.40;;
69795;SDS011;57073;45.650;9.612;2023-05-18T01:30:03;10.97;;;7.10;;
69795;SDS011;57073;45.650;9.612;2023-05-18T01:35:04;11.60;;;7.13;;
69795;SDS011;57073;45.650;9.612;2023-05-18T01:40:05;14.57;;;7.67;;
69795;SDS011;57073;45.650;9.612;2023-05-18T01:45:08;10.02;;;6.90;;
69795;SDS011;57073;45.650;9.612;2023-05-18T01:50:19;11.13;;;6.87;;
69795;SDS011;57073;45.650;9.612;2023-05-18T01:55:28;8.95;;;6.95;;
69795;SDS011;57073;45.650;9.612;2023-05-18T02:00:30;9.93;;;6.40;;
69795;SDS011;57073;45.650;9.612;2023-05-18T02:05:31;11.23;;;7.00;;
69795;SDS011;57073;45.650;9.612;2023-05-18T02:10:31;11.50;;;7.30;;
69795;SDS011;57073;45.650;9.612;2023-05-18T02:15:31;10.93;;;6.67;;
69795;SDS011;57073;45.650;9.612;2023-05-18T02:20:32;17.57;;;8.23;;
69795;SDS011;57073;45.650;9.612;2023-05-18T02:25:32;12.47;;;7.57;;
69795;SDS011;57073;45.650;9.612;2023-05-18T02:30:33;13.50;;;7.63;;
69795;SDS011;57073;45.650;9.612;2023-05-18T02:35:33;12.00;;;7.30;;
69795;SDS011;57073;45.650;9.612;2023-05-18T02:40:34;12.88;;;7.78;;
69795;SDS011;57073;45.650;9.612;2023-05-18T02:45:35;12.40;;;7.53;;
69795;SDS011;57073;45.650;9.612;2023-05-18T02:50:35;14.77;;;8.52;;
69795;SDS011;57073;45.650;9.612;2023-05-18T02:55:36;16.90;;;9.27;;
69795;SDS011;57073;45.650;9.612;2023-05-18T03:00:37;11.77;;;7.03;;
69795;SDS011;57073;45.650;9.612;2023-05-18T03:05:37;11.83;;;6.83;;
69795;SDS011;57073;45.650;9.612;2023-05-18T03:10:38;13.27;;;7.90;;
69795;SDS011;57073;45.650;9.612;2023-05-18T03:15:39;12.13;;;7.37;;
69795;SDS011;57073;45.650;9.612;2023-05-18T03:20:39;14.13;;;7.97;;
69795;SDS011;57073;45.650;9.612;2023-05-18T03:25:40;18.03;;;8.77;;
69795;SDS011;57073;45.650;9.612;2023-05-18T03:30:42;13.97;;;9.50;;
69795;SDS011;57073;45.650;9.612;2023-05-18T03:35:42;15.50;;;9.90;;
69795;SDS011;57073;45.650;9.612;2023-05-18T03:40:42;14.63;;;9.93;;
69795;SDS011;57073;45.650;9.612;2023-05-18T03:45:43;15.63;;;10.63;;
69795;SDS011;57073;45.650;9.612;2023-05-18T03:50:43;17.10;;;11.03;;
69795;SDS011;57073;45.650;9.612;2023-05-18T03:55:44;10.93;;;7.73;;
69795;SDS011;57073;45.650;9.612;2023-05-18T04:00:45;11.05;;;7.07;;
69795;SDS011;57073;45.650;9.612;2023-05-18T04:05:46;10.87;;;7.60;;
69795;SDS011;57073;45.650;9.612;2023-05-18T04:10:48;10.23;;;6.70;;
69795;SDS011;57073;45.650;9.612;2023-05-18T04:15:49;8.77;;;6.40;;
69795;SDS011;57073;45.650;9.612;2023-05-18T04:20:49;9.53;;;6.43;;
69795;SDS011;57073;45.650;9.612;2023-05-18T04:25:50;9.07;;;6.03;;
69795;SDS011;57073;45.650;9.612;2023-05-18T04:30:50;8.60;;;6.32;;
69795;SDS011;57073;45.650;9.612;2023-05-18T04:35:51;8.80;;;6.23;;
69795;SDS011;57073;45.650;9.612;2023-05-18T04:40:54;8.23;;;5.70;;
69795;SDS011;57073;45.650;9.612;2023-05-18T04:45:56;8.52;;;6.13;;
69795;SDS011;57073;45.650;9.612;2023-05-18T04:50:57;8.43;;;6.10;;
69795;SDS011;57073;45.650;9.612;2023-05-18T04:55:57;8.90;;;5.80;;
69795;SDS011;57073;45.650;9.612;2023-05-18T05:00:59;9.07;;;6.38;;
69795;SDS011;57073;45.650;9.612;2023-05-18T05:06:00;12.37;;;7.20;;
69795;SDS011;57073;45.650;9.612;2023-05-18T05:11:00;7.60;;;5.57;;
69795;SDS011;57073;45.650;9.612;2023-05-18T05:16:01;6.83;;;4.70;;
69795;SDS011;57073;45.650;9.612;2023-05-18T05:21:02;8.35;;;5.80;;
69795;SDS011;57073;45.650;9.612;2023-05-18T05:26:02;8.80;;;5.40;;
69795;SDS011;57073;45.650;9.612;2023-05-18T05:31:03;10.90;;;6.07;;
69795;SDS011;57073;45.650;9.612;2023-05-18T05:36:03;9.50;;;5.53;;
69795;SDS011;57073;45.650;9.612;2023-05-18T05:41:04;7.13;;;4.90;;
69795;SDS011;57073;45.650;9.612;2023-05-18T05:46:05;10.17;;;5.30;;
69795;SDS011;57073;45.650;9.612;2023-05-18T05:51:05;7.23;;;4.70;;
69795;SDS011;57073;45.650;9.612;2023-05-18T05:56:05;7.23;;;4.80;;
69795;SDS011;57073;45.650;9.612;2023-05-18T06:01:07;6.95;;;4.38;;
69795;SDS011;57073;45.650;9.612;2023-05-18T06:06:07;8.33;;;3.93;;
69795;SDS011;57073;45.650;9.612;2023-05-18T06:11:08;5.57;;;4.10;;
69795;SDS011;57073;45.650;9.612;2023-05-18T06:16:10;5.47;;;3.10;;
69795;SDS011;57073;45.650;9.612;2023-05-18T06:21:10;4.03;;;2.90;;
69795;SDS011;57073;45.650;9.612;2023-05-18T06:26:11;4.40;;;2.67;;
69795;SDS011;57073;45.650;9.612;2023-05-18T06:31:11;4.50;;;2.40;;
69795;SDS011;57073;45.650;9.612;2023-05-18T06:36:12;3.27;;;2.03;;
69795;SDS011;57073;45.650;9.612;2023-05-18T06:41:12;3.80;;;1.87;;
69795;SDS011;57073;45.650;9.612;2023-05-18T06:46:22;1.57;;;1.17;;
69795;SDS011;57073;45.650;9.612;2023-05-18T06:51:23;2.60;;;1.40;;
69795;SDS011;57073;45.650;9.612;2023-05-18T06:56:23;3.30;;;1.60;;
69795;SDS011;57073;45.650;9.612;2023-05-18T07:01:24;3.77;;;1.90;;
69795;SDS011;57073;45.650;9.612;2023-05-18T07:06:25;2.57;;;1.77;;
69795;SDS011;57073;45.650;9.612;2023-05-18T07:11:25;3.63;;;1.73;;
69795;SDS011;57073;45.650;9.612;2023-05-18T07:16:26;3.45;;;1.70;;
69795;SDS011;57073;45.650;9.612;2023-05-18T07:21:27;2.93;;;1.90;;
69795;SDS011;57073;45.650;9.612;2023-05-18T07:26:27;2.83;;;1.40;;
69795;SDS011;57073;45.650;9.612;2023-05-18T07:31:28;3.65;;;1.30;;
69795;SDS011;57073;45.650;9.612;2023-05-18T07:36:29;2.90;;;1.20;;
69795;SDS011;57073;45.650;9.612;2023-05-18T07:41:29;3.20;;;1.30;;
69795;SDS011;57073;45.650;9.612;2023-05-18T07:46:32;2.53;;;1.50;;
69795;SDS011;57073;45.650;9.612;2023-05-18T07:51:33;2.67;;;1.37;;
69795;SDS011;57073;45.650;9.612;2023-05-18T07:56:33;3.50;;;1.73;;
69795;SDS011;57073;45.650;9.612;2023-05-18T08:01:34;4.00;;;1.53;;
69795;SDS011;57073;45.650;9.612;2023-05-18T08:06:36;4.85;;;1.80;;
69795;SDS011;57073;45.650;9.612;2023-05-18T08:11:36;3.37;;;1.73;;
69795;SDS011;57073;45.650;9.612;2023-05-18T08:16:37;5.27;;;1.60;;
69795;SDS011;57073;45.650;9.612;2023-05-18T08:21:37;4.20;;;1.40;;
69795;SDS011;57073;45.650;9.612;2023-05-18T08:26:37;4.90;;;1.43;;
69795;SDS011;57073;45.650;9.612;2023-05-18T08:31:39;5.97;;;1.60;;
69795;SDS011;57073;45.650;9.612;2023-05-18T08:36:40;3.13;;;1.42;;
69795;SDS011;57073;45.650;9.612;2023-05-18T08:41:52;2.70;;;1.37;;
69795;SDS011;57073;45.650;9.612;2023-05-18T08:46:54;4.00;;;1.40;;
69795;SDS011;57073;45.650;9.612;2023-05-18T08:51:56;5.18;;;1.60;;
69795;SDS011;57073;45.650;9.612;2023-05-18T08:56:59;3.10;;;1.80;;
69795;SDS011;57073;45.650;9.612;2023-05-18T09:02:01;2.72;;;1.55;;
69795;SDS011;57073;45.650;9.612;2023-05-18T09:07:03;2.67;;;1.67;;
69795;SDS011;57073;45.650;9.612;2023-05-18T09:12:06;5.07;;;1.83;;
69795;SDS011;57073;45.650;9.612;2023-05-18T09:17:07;3.35;;;2.00;;
69795;SDS011;57073;45.650;9.612;2023-05-18T09:22:08;3.73;;;1.93;;
69795;SDS011;57073;45.650;9.612;2023-05-18T09:27:09;6.80;;;1.80;;
69795;SDS011;57073;45.650;9.612;2023-05-18T09:32:10;3.17;;;2.03;;
69795;SDS011;57073;45.650;9.612;2023-05-18T09:37:10;3.00;;;1.80;;
69795;SDS011;57073;45.650;9.612;2023-05-18T09:42:11;2.77;;;1.60;;
69795;SDS011;57073;45.650;9.612;2023-05-18T09:47:11;3.70;;;1.87;;
69795;SDS011;57073;45.650;9.612;2023-05-18T09:52:11;4.30;;;1.75;;
69795;SDS011;57073;45.650;9.612;2023-05-18T09:57:12;5.57;;;1.80;;
69795;SDS011;57073;45.650;9.612;2023-05-18T10:02:13;5.50;;;1.83;;
69795;SDS011;57073;45.650;9.612;2023-05-18T10:07:15;3.28;;;1.75;;
69795;SDS011;57073;45.650;9.612;2023-05-18T10:12:16;2.90;;;2.13;;
69795;SDS011;57073;45.650;9.612;2023-05-18T10:17:18;6.38;;;2.50;;
69795;SDS011;57073;45.650;9.612;2023-05-18T10:22:20;4.72;;;2.47;;
69795;SDS011;57073;45.650;9.612;2023-05-18T10:27:22;2.97;;;2.10;;
69795;SDS011;57073;45.650;9.612;2023-05-18T10:32:27;4.18;;;2.13;;
69795;SDS011;57073;45.650;9.612;2023-05-18T10:37:29;3.58;;;2.10;;
69795;SDS011;57073;45.650;9.612;2023-05-18T10:42:32;3.27;;;2.13;;
69795;SDS011;57073;45.650;9.612;2023-05-18T10:47:34;4.47;;;2.35;;
69795;SDS011;57073;45.650;9.612;2023-05-18T10:52:38;2.70;;;2.10;;
69795;SDS011;57073;45.650;9.612;2023-05-18T10:57:46;3.37;;;2.20;;
69795;SDS011;57073;45.650;9.612;2023-05-18T11:02:51;4.60;;;2.50;;
69795;SDS011;57073;45.650;9.612;2023-05-18T11:08:01;3.83;;;2.00;;
69795;SDS011;57073;45.650;9.612;2023-05-18T11:13:04;5.20;;;2.60;;
69795;SDS011;57073;45.650;9.612;2023-05-18T11:18:12;8.45;;;2.90;;
69795;SDS011;57073;45.650;9.612;2023-05-18T11:23:13;4.37;;;2.60;;
69795;SDS011;57073;45.650;9.612;2023-05-18T11:28:15;4.72;;;2.90;;
69795;SDS011;57073;45.650;9.612;2023-05-18T11:38:43;5.28;;;3.08;;
69795;SDS011;57073;45.650;9.612;2023-05-18T11:49:21;5.10;;;3.40;;
69795;SDS011;57073;45.650;9.612;2023-05-18T11:54:24;4.78;;;3.40;;
69795;SDS011;57073;45.650;9.612;2023-05-18T11:59:28;5.23;;;3.17;;
69795;SDS011;57073;45.650;9.612;2023-05-18T12:04:29;6.27;;;3.03;;
69795;SDS011;57073;45.650;9.612;2023-05-18T12:09:32;4.93;;;2.95;;
69795;SDS011;57073;45.650;9.612;2023-05-18T12:14:33;6.30;;;3.27;;
69795;SDS011;57073;45.650;9.612;2023-05-18T12:19:41;4.10;;;3.15;;
69795;SDS011;57073;45.650;9.612;2023-05-18T12:24:43;7.32;;;3.35;;
69795;SDS011;57073;45.650;9.612;2023-05-18T12:29:43;4.80;;;3.10;;
69795;SDS011;57073;45.650;9.612;2023-05-18T12:34:44;6.13;;;3.00;;
69795;SDS011;57073;45.650;9.612;2023-05-18T12:39:44;5.13;;;2.87;;
69795;SDS011;57073;45.650;9.612;2023-05-18T12:44:51;5.63;;;3.08;;
69795;SDS011;57073;45.650;9.612;2023-05-18T12:49:51;5.07;;;3.53;;
69795;SDS011;57073;45.650;9.612;2023-05-18T12:54:55;5.87;;;3.27;;
69795;SDS011;57073;45.650;9.612;2023-05-18T12:59:59;4.05;;;3.03;;
69795;SDS011;57073;45.650;9.612;2023-05-18T13:05:00;7.37;;;2.87;;
69795;SDS011;57073;45.650;9.612;2023-05-18T13:10:15;4.10;;;2.75;;
69795;SDS011;57073;45.650;9.612;2023-05-18T13:15:21;5.70;;;2.67;;
69795;SDS011;57073;45.650;9.612;2023-05-18T13:20:23;5.97;;;3.00;;
69795;SDS011;57073;45.650;9.612;2023-05-18T13:25:33;4.57;;;3.17;;
69795;SDS011;57073;45.650;9.612;2023-05-18T13:30:34;7.70;;;3.00;;
69795;SDS011;57073;45.650;9.612;2023-05-18T13:35:36;4.53;;;2.90;;
69795;SDS011;57073;45.650;9.612;2023-05-18T13:40:38;6.63;;;2.90;;
69795;SDS011;57073;45.650;9.612;2023-05-18T13:45:39;4.88;;;2.83;;
69795;SDS011;57073;45.650;9.612;2023-05-18T13:50:40;4.53;;;2.47;;
69795;SDS011;57073;45.650;9.612;2023-05-18T13:55:41;4.17;;;2.93;;
69795;SDS011;57073;45.650;9.612;2023-05-18T14:00:41;5.00;;;2.60;;
69795;SDS011;57073;45.650;9.612;2023-05-18T14:05:41;4.17;;;2.57;;
69795;SDS011;57073;45.650;9.612;2023-05-18T14:10:42;3.40;;;2.50;;
69795;SDS011;57073;45.650;9.612;2023-05-18T14:15:42;3.40;;;2.30;;
69795;SDS011;57073;45.650;9.612;2023-05-18T14:20:43;5.50;;;2.60;;
69795;SDS011;57073;45.650;9.612;2023-05-18T14:25:43;5.17;;;2.37;;
69795;SDS011;57073;45.650;9.612;2023-05-18T14:30:44;3.72;;;2.45;;
69795;SDS011;57073;45.650;9.612;2023-05-18T14:35:45;5.00;;;2.70;;
69795;SDS011;57073;45.650;9.612;2023-05-18T14:40:45;4.67;;;3.63;;
69795;SDS011;57073;45.650;9.612;2023-05-18T14:45:45;4.37;;;2.83;;
69795;SDS011;57073;45.650;9.612;2023-05-18T14:50:46;3.97;;;2.73;;
69795;SDS011;57073;45.650;9.612;2023-05-18T14:55:46;4.20;;;2.75;;
69795;SDS011;57073;45.650;9.612;2023-05-18T15:00:47;5.23;;;3.00;;
69795;SDS011;57073;45.650;9.612;2023-05-18T15:05:47;4.00;;;2.30;;
69795;SDS011;57073;45.650;9.612;2023-05-18T15:10:47;4.33;;;2.80;;
69795;SDS011;57073;45.650;9.612;2023-05-18T15:15:49;3.47;;;2.43;;
69795;SDS011;57073;45.650;9.612;2023-05-18T15:20:49;4.60;;;2.80;;
69795;SDS011;57073;45.650;9.612;2023-05-18T15:25:49;3.03;;;2.13;;
69795;SDS011;57073;45.650;9.612;2023-05-18T15:30:50;5.70;;;2.00;;
69795;SDS011;57073;45.650;9.612;2023-05-18T15:35:51;3.70;;;1.73;;
69795;SDS011;57073;45.650;9.612;2023-05-18T15:40:51;2.63;;;1.73;;
69795;SDS011;57073;45.650;9.612;2023-05-18T15:45:51;3.30;;;1.93;;
69795;SDS011;57073;45.650;9.612;2023-05-18T15:50:52;3.43;;;1.60;;
69795;SDS011;57073;45.650;9.612;2023-05-18T15:55:52;7.72;;;3.40;;
69795;SDS011;57073;45.650;9.612;2023-05-18T16:00:54;5.37;;;4.30;;
69795;SDS011;57073;45.650;9.612;2023-05-18T16:05:54;8.83;;;3.97;;
69795;SDS011;57073;45.650;9.612;2023-05-18T16:10:56;3.77;;;3.03;;
69795;SDS011;57073;45.650;9.612;2023-05-18T16:15:56;4.80;;;3.10;;
69795;SDS011;57073;45.650;9.612;2023-05-18T16:20:56;5.10;;;3.23;;
69795;SDS011;57073;45.650;9.612;2023-05-18T16:25:57;6.87;;;2.70;;
69795;SDS011;57073;45.650;9.612;2023-05-18T16:30:58;4.43;;;2.00;;
69795;SDS011;57073;45.650;9.612;2023-05-18T16:35:59;7.38;;;2.22;;
69795;SDS011;57073;45.650;9.612;2023-05-18T16:41:01;5.63;;;3.07;;
69795;SDS011;57073;45.650;9.612;2023-05-18T16:46:01;5.32;;;2.55;;
69795;SDS011;57073;45.650;9.612;2023-05-18T16:51:02;2.40;;;1.70;;
69795;SDS011;57073;45.650;9.612;2023-05-18T16:56:05;3.85;;;2.00;;
69795;SDS011;57073;45.650;9.612;2023-05-18T17:01:06;3.73;;;1.90;;
69795;SDS011;57073;45.650;9.612;2023-05-18T17:06:06;3.20;;;2.00;;
69795;SDS011;57073;45.650;9.612;2023-05-18T17:11:07;2.77;;;1.70;;
69795;SDS011;57073;45.650;9.612;2023-05-18T17:16:07;3.73;;;2.30;;
69795;SDS011;57073;45.650;9.612;2023-05-18T17:21:08;4.63;;;2.70;;
69795;SDS011;57073;45.650;9.612;2023-05-18T17:26:08;4.20;;;2.83;;
69795;SDS011;57073;45.650;9.612;2023-05-18T17:31:08;4.10;;;2.60;;
69795;SDS011;57073;45.650;9.612;2023-05-18T17:36:09;4.35;;;2.60;;
69795;SDS011;57073;45.650;9.612;2023-05-18T17:41:09;3.53;;;2.60;;
69795;SDS011;57073;45.650;9.612;2023-05-18T17:46:10;5.17;;;2.90;;
69795;SDS011;57073;45.650;9.612;2023-05-18T17:51:10;6.77;;;3.10;;
69795;SDS011;57073;45.650;9.612;2023-05-18T17:56:11;4.87;;;3.10;;
69795;SDS011;57073;45.650;9.612;2023-05-18T18:01:11;5.37;;;2.97;;
69795;SDS011;57073;45.650;9.612;2023-05-18T18:06:12;6.50;;;2.93;;
69795;SDS011;57073;45.650;9.612;2023-05-18T18:11:12;4.73;;;3.10;;
69795;SDS011;57073;45.650;9.612;2023-05-18T18:16:13;4.53;;;2.93;;
69795;SDS011;57073;45.650;9.612;2023-05-18T18:21:14;5.03;;;3.60;;
69795;SDS011;57073;45.650;9.612;2023-05-18T18:26:15;5.22;;;3.20;;
69795;SDS011;57073;45.650;9.612;2023-05-18T18:31:15;6.27;;;3.40;;
69795;SDS011;57073;45.650;9.612;2023-05-18T18:36:15;4.93;;;3.40;;
69795;SDS011;57073;45.650;9.612;2023-05-18T18:41:16;4.77;;;2.70;;
69795;SDS011;57073;45.650;9.612;2023-05-18T18:46:17;3.53;;;2.57;;
69795;SDS011;57073;45.650;9.612;2023-05-18T18:51:17;3.40;;;2.03;;
69795;SDS011;57073;45.650;9.612;2023-05-18T18:56:17;5.63;;;2.13;;
69795;SDS011;57073;45.650;9.612;2023-05-18T19:01:18;3.20;;;2.40;;
69795;SDS011;57073;45.650;9.612;2023-05-18T19:06:18;4.45;;;2.70;;
69795;SDS011;57073;45.650;9.612;2023-05-18T19:11:19;4.07;;;2.77;;
69795;SDS011;57073;45.650;9.612;2023-05-18T19:16:21;4.40;;;2.47;;
69795;SDS011;57073;45.650;9.612;2023-05-18T19:21:22;3.90;;;2.60;;
69795;SDS011;57073;45.650;9.612;2023-05-18T19:26:24;3.90;;;2.60;;
69795;SDS011;57073;45.650;9.612;2023-05-18T19:31:25;4.70;;;2.70;;
69795;SDS011;57073;45.650;9.612;2023-05-18T19:36:25;3.80;;;2.58;;
69795;SDS011;57073;45.650;9.612;2023-05-18T19:41:26;3.83;;;2.57;;
69795;SDS011;57073;45.650;9.612;2023-05-18T19:46:26;5.17;;;2.60;;
69795;SDS011;57073;45.650;9.612;2023-05-18T19:51:27;3.47;;;2.30;;
69795;SDS011;57073;45.650;9.612;2023-05-18T19:56:28;3.72;;;2.53;;
69795;SDS011;57073;45.650;9.612;2023-05-18T20:01:28;4.00;;;2.50;;
69795;SDS011;57073;45.650;9.612;2023-05-18T20:06:28;6.13;;;3.20;;
69795;SDS011;57073;45.650;9.612;2023-05-18T20:11:30;4.23;;;2.70;;
69795;SDS011;57073;45.650;9.612;2023-05-18T20:16:31;4.40;;;2.73;;
69795;SDS011;57073;45.650;9.612;2023-05-18T20:21:33;5.13;;;3.07;;
69795;SDS011;57073;45.650;9.612;2023-05-18T20:26:34;7.80;;;3.22;;
69795;SDS011;57073;45.650;9.612;2023-05-18T20:31:35;6.67;;;3.20;;
69795;SDS011;57073;45.650;9.612;2023-05-18T20:36:35;5.97;;;3.10;;
69795;SDS011;57073;45.650;9.612;2023-05-18T20:41:35;6.77;;;3.53;;
69795;SDS011;57073;45.650;9.612;2023-05-18T20:46:38;6.03;;;3.67;;
69795;SDS011;57073;45.650;9.612;2023-05-18T20:51:41;8.13;;;3.70;;
69795;SDS011;57073;45.650;9.612;2023-05-18T20:56:41;6.07;;;3.50;;
69795;SDS011;57073;45.650;9.612;2023-05-18T21:01:42;6.43;;;3.60;;
69795;SDS011;57073;45.650;9.612;2023-05-18T21:06:42;9.98;;;3.60;;
69795;SDS011;57073;45.650;9.612;2023-05-18T21:11:42;7.30;;;3.77;;
69795;SDS011;57073;45.650;9.612;2023-05-18T21:16:43;7.03;;;3.60;;
69795;SDS011;57073;45.650;9.612;2023-05-18T21:21:44;6.33;;;3.20;;
69795;SDS011;57073;45.650;9.612;2023-05-18T21:26:44;5.37;;;3.63;;
69795;SDS011;57073;45.650;9.612;2023-05-18T21:31:44;6.37;;;3.10;;
69795;SDS011;57073;45.650;9.612;2023-05-18T21:36:45;8.40;;;3.90;;
69795;SDS011;57073;45.650;9.612;2023-05-18T21:41:45;5.90;;;3.57;;
69795;SDS011;57073;45.650;9.612;2023-05-18T21:46:46;7.00;;;3.60;;
69795;SDS011;57073;45.650;9.612;2023-05-18T21:51:46;6.43;;;3.60;;
69795;SDS011;57073;45.650;9.612;2023-05-18T21:56:46;7.33;;;3.90;;
69795;SDS011;57073;45.650;9.612;2023-05-18T22:01:47;6.30;;;3.00;;
69795;SDS011;57073;45.650;9.612;2023-05-18T22:06:47;4.97;;;3.00;;
69795;SDS011;57073;45.650;9.612;2023-05-18T22:11:48;5.90;;;3.58;;
69795;SDS011;57073;45.650;9.612;2023-05-18T22:16:48;9.57;;;3.53;;
69795;SDS011;57073;45.650;9.612;2023-05-18T22:21:48;7.13;;;3.53;;
69795;SDS011;57073;45.650;9.612;2023-05-18T22:26:49;6.03;;;3.70;;
69795;SDS011;57073;45.650;9.612;2023-05-18T22:31:50;5.13;;;3.47;;
69795;SDS011;57073;45.650;9.612;2023-05-18T22:36:50;6.63;;;3.70;;
69795;SDS011;57073;45.650;9.612;2023-05-18T22:41:50;5.37;;;3.53;;
69795;SDS011;57073;45.650;9.612;2023-05-18T22:46:51;6.67;;;4.03;;
69795;SDS011;57073;45.650;9.612;2023-05-18T22:51:51;6.07;;;3.60;;
69795;SDS011;57073;45.650;9.612;2023-05-18T22:56:52;6.03;;;3.90;;
69795;SDS011;57073;45.650;9.612;2023-05-18T23:01:52;4.97;;;3.57;;
69795;SDS011;57073;45.650;9.612;2023-05-18T23:06:53;7.73;;;4.07;;
69795;SDS011;57073;45.650;9.612;2023-05-18T23:11:55;5.90;;;3.63;;
69795;SDS011;57073;45.650;9.612;2023-05-18T23:16:58;6.55;;;3.85;;
69795;SDS011;57073;45.650;9.612;2023-05-18T23:21:59;7.37;;;3.83;;
69795;SDS011;57073;45.650;9.612;2023-05-18T23:26:59;7.87;;;3.70;;
69795;SDS011;57073;45.650;9.612;2023-05-18T23:32:00;7.23;;;3.90;;
69795;SDS011;57073;45.650;9.612;2023-05-18T23:37:02;5.30;;;3.47;;
69795;SDS011;57073;45.650;9.612;2023-05-18T23:42:05;6.37;;;3.80;;
69795;SDS011;57073;45.650;9.612;2023-05-18T23:47:06;7.00;;;3.80;;
69795;SDS011;57073;45.650;9.612;2023-05-18T23:52:07;5.03;;;3.43;;
69795;SDS011;57073;45.650;9.612;2023-05-18T23:57:08;6.15;;;4.47;;
